Time;durP1;ratioP1;P1;durP2;ratioP2;P2;SDS_P1;SDS_P2;PMS_P1;PMS_P2;Temp;Humidity;BMP_temperature;BMP_pressure;BME280_temperature;BME280_humidity;BME280_pressure;Samples;Min_cycle;Max_cycle;Signal;HPM_P1;HPM_P2
2021/01/02 00:00:56;;;;;;;29.67;19.35;;;15.30;65.40;;;;;;4992044;28;20491;-70
2021/01/02 00:03:55;;;;;;;29.33;18.73;;;15.30;65.50;;;;;;4996168;28;20030;-69
2021/01/02 00:06:39;;;;;;;28.50;18.48;;;15.30;65.40;;;;;;4996935;28;20026;-70
2021/01/02 00:09:06;;;;;;;29.83;18.58;;;15.20;65.40;;;;;;4994412;28;20125;-70
2021/01/02 00:12:03;;;;;;;30.95;18.63;;;15.20;65.40;;;;;;4997889;28;20045;-70
2021/01/02 00:14:57;;;;;;;27.58;18.08;;;15.20;65.30;;;;;;4989879;28;20022;-71
2021/01/02 00:17:45;;;;;;;28.83;18.48;;;15.20;65.30;;;;;;4990483;28;20040;-71
2021/01/02 00:20:16;;;;;;;25.33;17.60;;;15.20;65.30;;;;;;4990539;28;20026;-69
2021/01/02 00:22:53;;;;;;;29.73;18.13;;;15.20;65.20;;;;;;4992191;28;20026;-70
2021/01/02 00:25:21;;;;;;;26.80;17.40;;;15.20;65.30;;;;;;5007500;28;20033;-70
2021/01/02 00:27:50;;;;;;;27.67;18.08;;;15.20;65.30;;;;;;4991560;28;20077;-69
2021/01/02 00:30:47;;;;;;;27.00;17.15;;;15.10;65.30;;;;;;4993291;28;20133;-72
2021/01/02 00:33:17;;;;;;;26.65;16.98;;;15.20;65.20;;;;;;4989809;28;20105;-70
2021/01/02 00:35:45;;;;;;;29.92;17.77;;;15.20;65.20;;;;;;4996322;28;20026;-70
2021/01/02 00:38:13;;;;;;;26.38;16.88;;;15.20;65.20;;;;;;4995806;28;20383;-69
2021/01/02 00:40:39;;;;;;;29.85;18.02;;;15.10;65.20;;;;;;4991773;28;20436;-70
2021/01/02 00:43:05;;;;;;;24.33;16.52;;;15.20;65.30;;;;;;4988561;28;20117;-70
2021/01/02 00:45:34;;;;;;;24.92;17.70;;;15.10;65.10;;;;;;4993199;28;20092;-70
2021/01/02 00:48:06;;;;;;;27.10;16.77;;;15.10;65.20;;;;;;4988939;28;20078;-70
2021/01/02 00:50:32;;;;;;;25.13;17.10;;;15.10;65.20;;;;;;5000804;28;20025;-70
2021/01/02 00:53:32;;;;;;;25.80;16.85;;;15.10;65.20;;;;;;4997726;28;20483;-71
2021/01/02 00:56:06;;;;;;;25.05;16.02;;;15.10;65.10;;;;;;5004607;28;20030;-70
2021/01/02 00:59:02;;;;;;;25.98;16.90;;;15.00;65.10;;;;;;4993887;28;20509;-70
2021/01/02 01:01:39;;;;;;;23.65;15.55;;;15.00;64.90;;;;;;4996409;28;20038;-71
2021/01/02 01:04:23;;;;;;;23.38;16.42;;;15.00;65.00;;;;;;4991799;28;20089;-71
2021/01/02 01:06:53;;;;;;;23.00;16.23;;;15.00;65.00;;;;;;4996321;28;20026;-70
2021/01/02 01:09:23;;;;;;;24.73;16.20;;;15.00;65.10;;;;;;4995937;28;20029;-70
2021/01/02 01:11:53;;;;;;;22.52;16.80;;;15.00;65.10;;;;;;5003855;28;20514;-71
2021/01/02 01:14:20;;;;;;;23.20;16.17;;;15.00;65.10;;;;;;4993748;28;20029;-70
2021/01/02 01:16:49;;;;;;;22.50;15.85;;;15.00;65.10;;;;;;5001821;28;20495;-70
2021/01/02 01:19:18;;;;;;;23.83;16.65;;;15.00;65.10;;;;;;4991042;28;20392;-71
2021/01/02 01:21:45;;;;;;;22.85;16.30;;;14.90;65.20;;;;;;4987908;28;20034;-70
2021/01/02 01:24:13;;;;;;;23.38;15.75;;;14.90;65.10;;;;;;4994991;28;20494;-70
2021/01/02 01:26:47;;;;;;;22.15;15.10;;;14.90;65.20;;;;;;5008382;28;20542;-69
2021/01/02 01:29:35;;;;;;;25.58;17.67;;;14.90;65.10;;;;;;5002653;28;20169;-70
2021/01/02 01:32:02;;;;;;;23.58;15.93;;;14.90;65.10;;;;;;4998423;28;20119;-71
2021/01/02 01:34:27;;;;;;;22.15;15.45;;;14.90;65.10;;;;;;4993169;28;20026;-71
2021/01/02 01:36:54;;;;;;;22.55;15.98;;;14.90;65.10;;;;;;4991252;28;20026;-70
2021/01/02 01:39:23;;;;;;;21.30;15.25;;;14.90;65.20;;;;;;4994382;28;20505;-70
2021/01/02 01:41:57;;;;;;;25.48;17.73;;;14.90;65.10;;;;;;4993296;28;20050;-70
2021/01/02 01:44:44;;;;;;;22.80;16.75;;;14.80;65.10;;;;;;4996134;28;20042;-70
2021/01/02 01:47:18;;;;;;;20.83;14.65;;;14.80;65.10;;;;;;4988793;28;20101;-70
2021/01/02 01:49:44;;;;;;;21.70;15.00;;;14.80;65.10;;;;;;4991592;28;20026;-70
2021/01/02 01:52:18;;;;;;;24.27;16.45;;;14.80;65.10;;;;;;4995858;28;20053;-69
2021/01/02 01:55:06;;;;;;;23.55;16.50;;;14.80;65.10;;;;;;4996907;28;20022;-70
2021/01/02 01:57:37;;;;;;;21.52;15.48;;;14.80;65.10;;;;;;5000427;28;20030;-71
2021/01/02 02:00:13;;;;;;;20.02;14.98;;;14.80;65.10;;;;;;4995030;28;20026;-70
2021/01/02 02:02:52;;;;;;;22.08;14.85;;;14.80;65.10;;;;;;4993961;28;20037;-70
2021/01/02 02:08:55;;;;;;;24.30;15.38;;;14.70;65.00;;;;;;5009364;28;20497;-69
2021/01/02 02:11:33;;;;;;;21.63;13.80;;;14.70;65.10;;;;;;4987514;28;20419;-71
2021/01/02 02:14:31;;;;;;;22.52;15.57;;;14.70;65.00;;;;;;4984664;28;20029;-71
2021/01/02 02:17:03;;;;;;;21.58;15.10;;;14.70;64.90;;;;;;4992611;28;20035;-69
2021/01/02 02:19:53;;;;;;;19.83;14.82;;;14.70;65.00;;;;;;4981971;28;20069;-69
2021/01/02 02:22:22;;;;;;;23.52;16.73;;;14.70;64.90;;;;;;4995133;28;20030;-70
2021/01/02 02:24:50;;;;;;;21.33;14.60;;;14.70;65.00;;;;;;4993067;28;20126;-70
2021/01/02 02:27:25;;;;;;;23.25;16.70;;;14.60;65.00;;;;;;4995726;28;20534;-70
2021/01/02 02:30:05;;;;;;;18.58;14.10;;;14.60;65.00;;;;;;5013551;28;20498;-69
2021/01/02 02:32:34;;;;;;;22.38;15.50;;;14.60;65.00;;;;;;5005334;28;20021;-68
2021/01/02 02:35:03;;;;;;;24.17;16.35;;;14.60;65.00;;;;;;4978226;28;20033;-70
2021/01/02 02:37:30;;;;;;;21.95;14.70;;;14.60;65.00;;;;;;4984093;28;20480;-70
2021/01/02 02:39:55;;;;;;;21.05;14.90;;;14.60;64.90;;;;;;4998356;28;20533;-68
2021/01/02 02:42:22;;;;;;;20.25;14.30;;;14.60;65.00;;;;;;5009381;28;20029;-70
2021/01/02 02:44:52;;;;;;;21.48;15.77;;;14.50;65.00;;;;;;4999510;28;20102;-70
2021/01/02 02:47:19;;;;;;;21.10;15.25;;;14.60;65.10;;;;;;4992157;28;20030;-70
2021/01/02 02:49:48;;;;;;;23.58;16.27;;;14.60;65.10;;;;;;4998856;28;20061;-69
2021/01/02 02:52:24;;;;;;;21.80;14.57;;;14.60;65.00;;;;;;5008463;28;20372;-69
2021/01/02 02:54:51;;;;;;;21.08;14.85;;;14.50;65.00;;;;;;5007544;28;20097;-70
2021/01/02 02:57:18;;;;;;;19.92;14.60;;;14.50;65.00;;;;;;4986057;28;20031;-69
2021/01/02 02:59:44;;;;;;;23.02;15.70;;;14.50;65.00;;;;;;4984512;28;20022;-71
2021/01/02 03:02:10;;;;;;;20.27;15.13;;;14.50;65.00;;;;;;4979771;28;20038;-70
2021/01/02 03:04:35;;;;;;;20.55;15.82;;;14.50;65.00;;;;;;4986826;28;20027;-71
2021/01/02 03:07:03;;;;;;;22.25;16.08;;;14.50;65.00;;;;;;4985451;28;20045;-68
2021/01/02 03:09:30;;;;;;;21.08;14.95;;;14.50;65.00;;;;;;4984296;28;20034;-71
2021/01/02 03:11:55;;;;;;;21.70;15.57;;;14.50;64.80;;;;;;4986080;28;20084;-70
2021/01/02 03:14:21;;;;;;;20.67;13.98;;;14.50;64.90;;;;;;4976060;28;20056;-69
2021/01/02 03:16:47;;;;;;;19.80;14.35;;;14.50;65.00;;;;;;4989439;28;20488;-69
2021/01/02 03:19:12;;;;;;;22.10;15.63;;;14.40;64.90;;;;;;4981750;28;20041;-71
2021/01/02 03:21:38;;;;;;;25.35;18.02;;;14.50;64.90;;;;;;4984435;28;20576;-71
2021/01/02 03:24:07;;;;;;;23.00;16.10;;;14.40;64.90;;;;;;4991952;28;20562;-70
2021/01/02 03:26:33;;;;;;;21.08;15.40;;;14.40;64.80;;;;;;4975610;28;20035;-71
2021/01/02 03:28:58;;;;;;;24.45;16.02;;;14.40;64.90;;;;;;4976117;28;20026;-70
2021/01/02 03:31:24;;;;;;;21.95;15.68;;;14.40;64.90;;;;;;4977710;28;20026;-69
2021/01/02 03:33:50;;;;;;;21.65;15.88;;;14.40;64.90;;;;;;4984542;28;20524;-70
2021/01/02 03:36:16;;;;;;;22.55;16.05;;;14.30;64.80;;;;;;4980212;28;20128;-69
2021/01/02 03:38:54;;;;;;;21.45;15.27;;;14.40;64.90;;;;;;4983713;28;20026;-70
2021/01/02 03:41:20;;;;;;;22.55;15.38;;;14.40;64.90;;;;;;4987044;28;20033;-70
2021/01/02 03:43:46;;;;;;;24.08;15.38;;;14.40;64.90;;;;;;4976179;28;20202;-70
2021/01/02 03:46:11;;;;;;;22.85;16.83;;;14.40;64.90;;;;;;4979247;28;20121;-70
2021/01/02 03:48:37;;;;;;;23.70;15.45;;;14.40;64.90;;;;;;4975922;28;20038;-71
2021/01/02 03:51:02;;;;;;;21.33;14.45;;;14.30;64.90;;;;;;4981807;28;20038;-69
2021/01/02 03:53:29;;;;;;;19.33;13.80;;;14.30;65.00;;;;;;4985027;28;20106;-67
2021/01/02 03:55:55;;;;;;;22.25;15.60;;;14.30;64.90;;;;;;4981437;28;20563;-70
2021/01/02 03:58:20;;;;;;;21.77;14.70;;;14.30;64.90;;;;;;4988887;28;20025;-70
2021/01/02 04:00:46;;;;;;;19.73;13.60;;;14.30;64.90;;;;;;4982214;28;20038;-70
2021/01/02 04:03:11;;;;;;;21.35;15.57;;;14.30;64.90;;;;;;4980426;28;20113;-71
2021/01/02 04:05:37;;;;;;;20.30;14.90;;;14.30;64.90;;;;;;4979452;28;20470;-70
2021/01/02 04:08:03;;;;;;;20.38;14.52;;;14.30;64.90;;;;;;4980245;28;20031;-72
2021/01/02 04:10:28;;;;;;;19.75;14.70;;;14.30;64.90;;;;;;4978427;28;20088;-70
2021/01/02 04:12:54;;;;;;;20.05;14.35;;;14.30;64.90;;;;;;4979267;28;20475;-70
2021/01/02 04:15:19;;;;;;;20.45;14.73;;;14.30;64.80;;;;;;4979678;28;20121;-70
2021/01/02 04:17:45;;;;;;;20.92;15.07;;;14.30;64.90;;;;;;4980882;28;20027;-71
2021/01/02 04:20:11;;;;;;;20.92;15.23;;;14.30;64.90;;;;;;4990658;28;20041;-71
2021/01/02 04:22:37;;;;;;;19.65;14.45;;;14.30;64.80;;;;;;4982833;28;20050;-70
2021/01/02 04:25:04;;;;;;;19.70;14.73;;;14.30;64.90;;;;;;4995397;28;20029;-69
2021/01/02 04:27:29;;;;;;;21.30;14.77;;;14.30;64.90;;;;;;4979243;28;20053;-71
2021/01/02 04:29:55;;;;;;;20.00;15.45;;;14.20;64.80;;;;;;4974849;28;20495;-70
2021/01/02 04:32:20;;;;;;;20.42;14.95;;;14.30;64.80;;;;;;4996629;28;20030;-69
2021/01/02 04:34:47;;;;;;;22.88;15.88;;;14.20;64.80;;;;;;4989529;28;20026;-69
2021/01/02 04:37:12;;;;;;;19.95;14.95;;;14.20;64.90;;;;;;4983976;28;20094;-70
2021/01/02 04:39:38;;;;;;;20.50;15.55;;;14.20;64.90;;;;;;4987787;28;20121;-72
2021/01/02 04:42:03;;;;;;;20.98;15.02;;;14.20;64.80;;;;;;4980396;28;20475;-69
2021/01/02 04:44:30;;;;;;;23.83;16.95;;;14.20;64.80;;;;;;4988723;28;20026;-70
2021/01/02 04:46:56;;;;;;;23.38;16.73;;;14.20;64.80;;;;;;4986624;28;20440;-71
2021/01/02 04:49:22;;;;;;;22.92;15.48;;;14.20;64.80;;;;;;4984378;28;20027;-71
2021/01/02 04:51:47;;;;;;;21.45;15.70;;;14.20;64.80;;;;;;4989353;28;20034;-70
2021/01/02 04:54:15;;;;;;;21.38;15.80;;;14.20;64.80;;;;;;4994208;28;20034;-69
2021/01/02 04:56:41;;;;;;;20.95;14.27;;;14.10;64.70;;;;;;5000144;28;20046;-70
2021/01/02 04:59:11;;;;;;;18.98;14.48;;;14.20;64.60;;;;;;4999269;28;20452;-70
2021/01/02 05:01:37;;;;;;;20.60;15.93;;;14.20;64.60;;;;;;4983554;28;20034;-70
2021/01/02 05:04:03;;;;;;;22.05;15.90;;;14.20;64.50;;;;;;4981185;28;20423;-70
2021/01/02 05:06:29;;;;;;;22.25;15.93;;;14.10;64.50;;;;;;4973175;28;20085;-69
2021/01/02 05:08:54;;;;;;;19.60;14.15;;;14.20;64.40;;;;;;4989365;28;20543;-71
2021/01/02 05:11:20;;;;;;;18.35;13.40;;;14.10;64.40;;;;;;4982525;28;20023;-69
2021/01/02 05:13:46;;;;;;;22.75;16.58;;;14.20;64.50;;;;;;4977451;28;20503;-69
2021/01/02 05:16:35;;;;;;;20.60;14.80;;;14.10;64.50;;;;;;4973509;28;20027;-70
2021/01/02 05:19:06;;;;;;;21.35;15.38;;;14.10;64.50;;;;;;4971057;28;20621;-69
2021/01/02 05:21:32;;;;;;;21.75;15.90;;;14.10;64.60;;;;;;4977390;28;20503;-70
2021/01/02 05:24:17;;;;;;;19.27;14.80;;;14.10;64.60;;;;;;5015312;28;20035;-69
2021/01/02 05:26:44;;;;;;;18.75;14.10;;;14.10;64.60;;;;;;4984730;28;20052;-71
2021/01/02 05:29:18;;;;;;;19.40;14.35;;;14.10;64.50;;;;;;4976200;28;20037;-69
2021/01/02 05:32:03;;;;;;;19.35;14.40;;;14.10;64.60;;;;;;4986509;28;20023;-69
2021/01/02 05:34:33;;;;;;;19.73;14.90;;;14.10;64.60;;;;;;4988663;28;20033;-69
2021/01/02 05:37:06;;;;;;;17.98;13.85;;;14.10;64.50;;;;;;4993787;28;20026;-70
2021/01/02 05:39:40;;;;;;;21.52;15.65;;;14.10;64.60;;;;;;4994580;28;20057;-70
2021/01/02 05:42:07;;;;;;;22.23;14.80;;;14.10;64.60;;;;;;4989779;28;20065;-69
2021/01/02 05:44:35;;;;;;;24.98;18.20;;;14.10;64.60;;;;;;4996024;28;20061;-69
2021/01/02 05:47:01;;;;;;;20.98;15.38;;;14.10;64.60;;;;;;4988909;28;20030;-70
2021/01/02 05:49:31;;;;;;;21.23;15.38;;;14.10;64.60;;;;;;4988534;28;20084;-70
2021/01/02 05:51:58;;;;;;;18.35;14.45;;;14.10;64.60;;;;;;4981014;28;20495;-69
2021/01/02 05:54:26;;;;;;;23.35;16.80;;;14.10;64.60;;;;;;4987279;28;20026;-69
2021/01/02 05:56:56;;;;;;;20.27;14.65;;;14.10;64.60;;;;;;4975979;28;20023;-70
2021/01/02 05:59:31;;;;;;;24.95;16.70;;;14.10;64.70;;;;;;4989167;28;20118;-70
2021/01/02 06:01:57;;;;;;;21.13;15.10;;;14.00;64.60;;;;;;4988359;28;20027;-69
2021/01/02 06:04:22;;;;;;;21.35;15.52;;;14.00;64.60;;;;;;4993479;28;20053;-69
2021/01/02 06:07:06;;;;;;;22.02;16.52;;;14.00;64.60;;;;;;4986988;28;20109;-67
2021/01/02 06:09:33;;;;;;;18.88;14.07;;;14.00;64.60;;;;;;5007501;28;20026;-69
2021/01/02 06:12:07;;;;;;;21.67;16.05;;;14.00;64.60;;;;;;4984038;28;20109;-70
2021/01/02 06:14:34;;;;;;;22.00;15.40;;;14.00;64.70;;;;;;4978601;28;20030;-66
2021/01/02 06:17:05;;;;;;;21.17;14.38;;;14.00;64.70;;;;;;4983187;28;20029;-70
2021/01/02 06:19:31;;;;;;;18.52;13.85;;;14.00;64.40;;;;;;4980833;28;20037;-67
2021/01/02 06:21:57;;;;;;;24.75;16.55;;;14.00;64.20;;;;;;4981819;28;20034;-69
2021/01/02 06:24:23;;;;;;;20.20;14.90;;;14.00;64.30;;;;;;4982629;28;20038;-69
2021/01/02 06:26:51;;;;;;;26.40;16.08;;;14.00;64.60;;;;;;4985509;28;20508;-70
2021/01/02 06:29:17;;;;;;;25.38;17.38;;;14.00;64.70;;;;;;4976275;28;20049;-71
2021/01/02 06:31:43;;;;;;;22.55;16.42;;;14.00;64.70;;;;;;4980148;28;20034;-70
2021/01/02 06:34:11;;;;;;;20.08;14.95;;;14.00;64.80;;;;;;4981639;28;20037;-69
2021/01/02 06:36:39;;;;;;;22.75;16.73;;;14.00;65.00;;;;;;4991038;28;20530;-69
2021/01/02 06:39:24;;;;;;;21.25;14.75;;;13.90;64.70;;;;;;4975665;28;20130;-70
2021/01/02 06:45:12;;;;;;;24.35;16.73;;;14.00;65.00;;;;;;5002657;28;20032;-68
2021/01/02 06:47:38;;;;;;;22.00;14.77;;;14.00;64.50;;;;;;4994072;28;20491;-67
2021/01/02 06:50:20;;;;;;;27.60;15.43;;;14.00;64.60;;;;;;4980109;28;20380;-66
2021/01/02 06:52:46;;;;;;;34.67;16.83;;;14.00;64.60;;;;;;4976205;28;20018;-68
2021/01/02 06:55:26;;;;;;;27.38;15.77;;;14.00;64.70;;;;;;4984474;28;20046;-69
2021/01/02 06:58:12;;;;;;;29.60;18.92;;;13.90;64.50;;;;;;4983176;28;20023;-69
2021/01/02 07:00:38;;;;;;;39.17;19.50;;;13.90;64.60;;;;;;4985484;28;20058;-70
2021/01/02 07:03:29;;;;;;;33.63;15.77;;;14.00;64.60;;;;;;5003072;28;20072;-70
2021/01/02 07:05:54;;;;;;;29.92;16.00;;;14.00;64.80;;;;;;4974802;28;20060;-70
2021/01/02 07:08:42;;;;;;;27.00;15.88;;;14.00;64.70;;;;;;4977016;28;20035;-69
2021/01/02 07:11:30;;;;;;;22.67;13.55;;;14.20;64.40;;;;;;4968243;28;20433;-71
2021/01/02 07:14:08;;;;;;;24.67;15.18;;;14.30;64.30;;;;;;4965499;28;20030;-71
2021/01/02 07:16:55;;;;;;;28.48;15.43;;;14.50;63.40;;;;;;4976770;28;20488;-70
2021/01/02 07:19:26;;;;;;;23.75;13.73;;;14.60;62.90;;;;;;4967315;28;20029;-69
2021/01/02 07:21:59;;;;;;;22.83;13.13;;;14.80;62.70;;;;;;4968468;28;20026;-70
2021/01/02 07:24:40;;;;;;;22.25;12.43;;;14.90;62.30;;;;;;4967841;28;20038;-71
2021/01/02 07:27:14;;;;;;;24.67;14.93;;;15.00;62.00;;;;;;4979551;28;20034;-71
2021/01/02 07:29:51;;;;;;;23.15;14.15;;;15.00;62.00;;;;;;4984674;28;20018;-71
2021/01/02 07:32:29;;;;;;;20.52;12.32;;;15.10;61.80;;;;;;4987493;28;20031;-71
2021/01/02 07:34:57;;;;;;;21.00;13.73;;;15.10;61.60;;;;;;4988338;28;20015;-70
2021/01/02 07:37:25;;;;;;;23.55;13.45;;;15.10;61.30;;;;;;4978286;28;20076;-71
2021/01/02 07:40:08;;;;;;;23.67;13.77;;;15.10;61.70;;;;;;4978589;28;20042;-69
2021/01/02 07:42:36;;;;;;;22.52;13.20;;;15.10;61.70;;;;;;4995857;28;20026;-70
2021/01/02 07:45:12;;;;;;;23.58;13.50;;;15.20;61.90;;;;;;4989229;28;20085;-70
2021/01/02 07:47:47;;;;;;;23.40;14.75;;;15.30;62.10;;;;;;4983521;28;20140;-70
2021/01/02 07:50:15;;;;;;;22.02;14.95;;;15.30;62.10;;;;;;4983769;28;20034;-69
2021/01/02 07:53:10;;;;;;;28.80;14.10;;;15.40;61.30;;;;;;4968963;28;20038;-69
2021/01/02 07:55:35;;;;;;;29.55;15.20;;;15.40;61.70;;;;;;4976882;28;20038;-69
2021/01/02 07:58:01;;;;;;;28.25;14.75;;;15.40;61.90;;;;;;5000921;28;20061;-69
2021/01/02 08:00:28;;;;;;;25.13;14.10;;;15.50;62.20;;;;;;4974329;28;20029;-68
2021/01/02 08:03:00;;;;;;;22.90;14.25;;;15.50;62.30;;;;;;4977472;28;20118;-67
2021/01/02 08:05:26;;;;;;;25.58;14.13;;;15.50;62.50;;;;;;4974069;28;20033;-68
2021/01/02 08:07:57;;;;;;;25.30;15.00;;;15.50;62.70;;;;;;4974591;28;20157;-75
2021/01/02 08:10:23;;;;;;;28.33;16.60;;;15.60;62.40;;;;;;4990228;28;20049;-69
2021/01/02 08:12:51;;;;;;;27.95;14.38;;;15.60;61.80;;;;;;4982898;28;20786;-68
2021/01/02 08:15:33;;;;;;;23.08;13.23;;;15.60;62.10;;;;;;4973275;28;20031;-69
2021/01/02 08:18:09;;;;;;;19.83;13.88;;;15.60;62.70;;;;;;4981379;28;20037;-68
2021/01/02 08:20:36;;;;;;;26.88;17.05;;;15.60;62.30;;;;;;4969983;28;20488;-71
2021/01/02 08:23:09;;;;;;;31.45;17.42;;;15.60;62.00;;;;;;4974309;28;20518;-71
2021/01/02 08:25:35;;;;;;;23.67;13.90;;;15.60;61.80;;;;;;4980919;28;20073;-70
2021/01/02 08:28:01;;;;;;;29.00;15.18;;;15.60;62.30;;;;;;4979449;28;20034;-70
2021/01/02 08:30:27;;;;;;;25.00;14.50;;;15.60;61.30;;;;;;5002890;28;20063;-70
2021/01/02 08:32:54;;;;;;;27.52;15.38;;;15.60;61.70;;;;;;5002352;28;20033;-73
2021/01/02 08:35:23;;;;;;;36.25;17.17;;;15.50;62.00;;;;;;4992665;28;20535;-72
2021/01/02 08:37:49;;;;;;;28.92;14.88;;;15.50;62.10;;;;;;4995399;28;20053;-70
2021/01/02 08:40:17;;;;;;;26.95;15.82;;;15.50;62.20;;;;;;4987867;28;20057;-70
2021/01/02 08:42:47;;;;;;;29.23;16.77;;;15.50;62.30;;;;;;4986058;28;20069;-72
2021/01/02 08:45:28;;;;;;;32.50;18.33;;;15.50;62.00;;;;;;4995023;28;20395;-73
2021/01/02 08:48:08;;;;;;;28.85;16.05;;;15.50;62.10;;;;;;5002089;28;20084;-70
2021/01/02 08:50:38;;;;;;;24.75;15.95;;;15.50;62.10;;;;;;4985417;28;20113;-71
2021/01/02 08:53:04;;;;;;;25.00;13.65;;;15.40;61.80;;;;;;4985104;28;20643;-69
2021/01/02 08:55:29;;;;;;;23.40;14.00;;;15.50;62.50;;;;;;4998323;28;20022;-72
2021/01/02 08:57:55;;;;;;;24.45;14.02;;;15.50;62.70;;;;;;4983450;28;20117;-70
2021/01/02 09:00:24;;;;;;;26.58;13.88;;;15.60;62.80;;;;;;4979988;28;20177;-71
2021/01/02 09:03:08;;;;;;;24.90;12.98;;;15.60;62.80;;;;;;4978751;28;20062;-72
2021/01/02 09:05:35;;;;;;;28.65;12.90;;;15.70;62.70;;;;;;4982944;28;20121;-70
2021/01/02 09:08:07;;;;;;;24.30;13.98;;;15.80;62.60;;;;;;4983328;28;20018;-71
2021/01/02 09:10:43;;;;;;;19.85;12.23;;;15.80;62.70;;;;;;4986550;28;20088;-74
2021/01/02 09:13:19;;;;;;;21.75;12.20;;;15.60;62.60;;;;;;4983563;28;20137;-70
2021/01/02 09:15:56;;;;;;;18.73;12.80;;;15.80;62.80;;;;;;4975352;28;20081;-72
2021/01/02 09:18:27;;;;;;;17.73;11.63;;;15.80;62.70;;;;;;4968889;28;20042;-71
2021/01/02 09:20:54;;;;;;;21.70;12.35;;;15.90;62.80;;;;;;4983946;28;20034;-72
2021/01/02 09:23:30;;;;;;;18.80;12.60;;;15.90;62.70;;;;;;4982037;28;20038;-71
2021/01/02 09:25:55;;;;;;;23.45;13.98;;;15.90;62.40;;;;;;4969439;28;20039;-72
2021/01/02 09:28:21;;;;;;;18.10;12.10;;;15.90;62.40;;;;;;4967552;28;20768;-72
2021/01/02 09:30:48;;;;;;;18.70;12.10;;;15.90;62.40;;;;;;4967534;28;20034;-73
2021/01/02 09:33:14;;;;;;;21.88;12.23;;;15.90;62.40;;;;;;4969204;28;20027;-71
2021/01/02 09:35:42;;;;;;;20.98;11.95;;;15.90;62.30;;;;;;4969555;28;20027;-71
2021/01/02 09:38:08;;;;;;;18.45;12.40;;;15.90;62.30;;;;;;4980112;28;20019;-73
2021/01/02 09:40:36;;;;;;;18.67;12.63;;;15.90;62.30;;;;;;4987031;28;20070;-71
2021/01/02 09:43:04;;;;;;;20.50;12.82;;;15.90;62.40;;;;;;4988432;28;20030;-70
2021/01/02 09:45:29;;;;;;;18.52;12.07;;;15.80;62.50;;;;;;4988659;28;20113;-69
2021/01/02 09:47:55;;;;;;;20.05;12.98;;;15.80;62.60;;;;;;4986689;28;20141;-71
2021/01/02 09:50:20;;;;;;;21.20;12.80;;;15.80;62.60;;;;;;4978737;28;20038;-71
2021/01/02 09:52:46;;;;;;;17.50;11.75;;;15.80;62.70;;;;;;4986653;28;20023;-71
2021/01/02 09:55:12;;;;;;;19.80;12.23;;;15.80;62.90;;;;;;4987005;28;20026;-72
2021/01/02 09:57:38;;;;;;;18.98;11.88;;;15.80;62.80;;;;;;4987006;28;20022;-71
2021/01/02 10:00:06;;;;;;;20.67;13.02;;;15.70;62.80;;;;;;4988437;28;20082;-70
2021/01/02 10:02:32;;;;;;;20.08;11.93;;;15.80;63.00;;;;;;4987696;28;20026;-71
2021/01/02 10:04:58;;;;;;;18.88;11.57;;;15.80;62.90;;;;;;4984787;28;20034;-70
2021/01/02 10:07:23;;;;;;;19.23;12.18;;;15.80;63.00;;;;;;4973721;28;20045;-69
2021/01/02 10:09:49;;;;;;;19.30;13.20;;;15.80;63.00;;;;;;4983113;28;20505;-71
2021/01/02 10:12:18;;;;;;;20.50;13.38;;;15.80;63.00;;;;;;4974783;28;20030;-71
2021/01/02 10:14:44;;;;;;;19.33;13.23;;;15.70;63.10;;;;;;4995517;28;20038;-70
2021/01/02 10:17:11;;;;;;;19.23;12.95;;;15.70;64.50;;;;;;4973766;28;20053;-72
2021/01/02 10:19:41;;;;;;;19.50;12.43;;;15.70;64.70;;;;;;4978218;28;20074;-72
2021/01/02 10:22:08;;;;;;;22.08;13.25;;;15.70;64.10;;;;;;4967778;28;20038;-70
2021/01/02 10:24:33;;;;;;;18.08;12.25;;;15.70;64.10;;;;;;4967394;28;20031;-72
2021/01/02 10:26:59;;;;;;;17.90;12.68;;;15.60;63.90;;;;;;4974838;28;20401;-70
2021/01/02 10:29:24;;;;;;;20.65;11.95;;;15.70;64.00;;;;;;4983219;28;20061;-71
2021/01/02 10:31:50;;;;;;;18.30;12.15;;;15.60;63.90;;;;;;4980690;28;20041;-71
2021/01/02 10:34:17;;;;;;;18.55;11.52;;;15.70;64.00;;;;;;4967677;28;20062;-72
2021/01/02 10:36:46;;;;;;;17.80;11.57;;;15.70;63.90;;;;;;4967483;28;20501;-70
2021/01/02 10:39:12;;;;;;;17.35;11.90;;;15.60;63.90;;;;;;4974132;28;20061;-71
2021/01/02 10:41:38;;;;;;;17.35;11.90;;;15.60;63.90;;;;;;4981522;28;20044;-73
2021/01/02 10:44:04;;;;;;;21.52;13.88;;;15.60;63.80;;;;;;4986355;28;20041;-73
2021/01/02 10:46:30;;;;;;;20.63;12.85;;;15.60;63.70;;;;;;4974264;28;20026;-69
2021/01/02 10:48:55;;;;;;;19.83;12.18;;;15.50;63.80;;;;;;4967193;28;20042;-70
2021/01/02 10:51:21;;;;;;;23.92;16.00;;;15.50;63.70;;;;;;4965588;28;20041;-69
2021/01/02 10:53:47;;;;;;;32.30;23.50;;;15.60;63.90;;;;;;4964444;28;20104;-70
2021/01/02 10:59:34;;;;;;;24.55;17.02;;;15.60;64.40;;;;;;4969145;28;20033;-70
2021/01/02 11:02:00;;;;;;;25.17;15.52;;;15.50;64.50;;;;;;4977710;28;20034;-70
2021/01/02 11:04:27;;;;;;;27.27;15.98;;;15.60;64.60;;;;;;4976050;28;20571;-70
2021/01/02 11:06:54;;;;;;;26.27;14.77;;;15.60;64.00;;;;;;4970467;28;20026;-69
2021/01/02 11:09:22;;;;;;;26.30;15.90;;;15.60;64.60;;;;;;4966817;28;20034;-69
2021/01/02 11:11:50;;;;;;;23.38;16.25;;;15.70;64.00;;;;;;4969480;28;20038;-69
2021/01/02 11:14:16;;;;;;;20.50;14.02;;;15.60;63.60;;;;;;4965957;28;20026;-69
2021/01/02 11:16:43;;;;;;;25.17;15.88;;;15.60;63.90;;;;;;4976814;28;20035;-69
2021/01/02 11:19:20;;;;;;;21.98;13.82;;;15.70;64.20;;;;;;4980138;28;20034;-68
2021/01/02 11:21:47;;;;;;;21.88;14.18;;;15.70;63.80;;;;;;4975166;28;20045;-69
2021/01/02 11:24:15;;;;;;;21.92;13.82;;;15.70;63.90;;;;;;4980232;28;20034;-69
2021/01/02 11:26:46;;;;;;;24.75;13.85;;;15.70;63.90;;;;;;4982699;28;20750;-69
2021/01/02 11:29:13;;;;;;;23.90;15.15;;;15.70;63.90;;;;;;4981025;28;20034;-70
2021/01/02 11:31:38;;;;;;;20.02;13.70;;;15.80;64.00;;;;;;4979039;28;20068;-69
2021/01/02 11:34:04;;;;;;;23.52;12.73;;;15.70;64.10;;;;;;4976585;28;20053;-69
2021/01/02 11:36:30;;;;;;;21.27;13.80;;;15.70;64.40;;;;;;4980666;28;20023;-68
2021/01/02 11:38:55;;;;;;;19.95;13.15;;;15.70;64.40;;;;;;4982858;28;20026;-68
2021/01/02 11:41:39;;;;;;;23.20;13.88;;;15.70;64.60;;;;;;4980723;28;20053;-70
2021/01/02 11:44:08;;;;;;;22.38;13.82;;;15.70;64.80;;;;;;4997795;28;20062;-69
2021/01/02 11:46:37;;;;;;;21.02;13.70;;;15.70;65.50;;;;;;4984279;28;20034;-69
2021/01/02 11:49:05;;;;;;;20.02;13.80;;;15.70;65.00;;;;;;4981688;28;20088;-69
2021/01/02 11:51:30;;;;;;;18.90;12.73;;;15.70;65.00;;;;;;4983684;28;20045;-69
2021/01/02 11:53:56;;;;;;;23.33;13.85;;;15.70;65.10;;;;;;4980065;28;20030;-68
2021/01/02 11:56:23;;;;;;;25.17;13.95;;;15.70;65.00;;;;;;4985136;28;20023;-69
2021/01/02 11:58:54;;;;;;;20.77;13.07;;;15.70;65.00;;;;;;4984626;28;20475;-69
2021/01/02 12:01:20;;;;;;;22.90;12.82;;;15.70;65.00;;;;;;4983953;28;20026;-68
2021/01/02 12:03:46;;;;;;;19.75;13.55;;;15.70;65.10;;;;;;4984961;28;20041;-70
2021/01/02 12:06:12;;;;;;;20.15;13.45;;;15.60;65.20;;;;;;4984023;28;20109;-69
2021/01/02 12:08:38;;;;;;;22.30;13.20;;;15.60;65.70;;;;;;4982135;28;20204;-71
2021/01/02 12:11:06;;;;;;;19.80;13.45;;;15.60;65.80;;;;;;4979860;28;20074;-68
2021/01/02 12:13:38;;;;;;;20.13;13.82;;;15.60;65.40;;;;;;4980148;28;20356;-69
2021/01/02 12:16:04;;;;;;;22.17;14.00;;;15.60;65.70;;;;;;4983282;28;20027;-68
2021/01/02 12:18:30;;;;;;;28.42;17.73;;;15.60;65.40;;;;;;4968069;28;20037;-69
2021/01/02 12:20:55;;;;;;;27.15;16.80;;;15.60;65.40;;;;;;4982243;28;20042;-69
2021/01/02 12:23:21;;;;;;;23.08;14.07;;;15.60;65.40;;;;;;4978085;28;20501;-69
2021/01/02 12:25:46;;;;;;;20.08;14.15;;;15.60;65.10;;;;;;4983679;28;20030;-69
2021/01/02 12:28:12;;;;;;;22.88;13.05;;;15.60;65.30;;;;;;4973916;28;20582;-68
2021/01/02 12:30:38;;;;;;;19.75;13.38;;;15.60;65.30;;;;;;4964262;28;20614;-68
2021/01/02 12:33:04;;;;;;;19.17;13.32;;;15.50;65.10;;;;;;4965244;28;20102;-70
2021/01/02 12:35:29;;;;;;;20.83;13.13;;;15.50;64.90;;;;;;4965579;28;20023;-69
2021/01/02 12:37:55;;;;;;;20.63;13.55;;;15.60;65.00;;;;;;4975835;28;20371;-68
2021/01/02 12:40:21;;;;;;;18.52;13.00;;;15.60;64.80;;;;;;4984489;28;20027;-68
2021/01/02 12:42:46;;;;;;;21.58;12.98;;;15.60;64.80;;;;;;4978153;28;20073;-68
2021/01/02 12:45:13;;;;;;;21.92;13.40;;;15.70;64.00;;;;;;4972872;28;20030;-67
2021/01/02 12:47:38;;;;;;;28.10;14.23;;;15.70;64.00;;;;;;4973069;28;20061;-69
2021/01/02 12:50:06;;;;;;;28.67;13.85;;;15.80;64.00;;;;;;4980023;28;20054;-68
2021/01/02 12:52:32;;;;;;;28.75;12.60;;;15.80;65.60;;;;;;4990878;28;20128;-70